Time;durP1;ratioP1;P1;durP2;ratioP2;P2;SDS_P1;SDS_P2;PMS_P1;PMS_P2;Temp;Humidity;BMP_temperature;BMP_pressure;BME280_temperature;BME280_humidity;BME280_pressure;Samples;Min_cycle;Max_cycle;Signal;HPM_P1;HPM_P2
2021/06/06 00:00:32;;;;;;;9.95;6.95;;;;;;;15.79;59.37;99225.39;1795022;78;21543;-43
2021/06/06 00:02:59;;;;;;;10.80;6.80;;;;;;;15.69;59.60;99228.94;1773974;78;21024;-42
2021/06/06 00:05:34;;;;;;;10.55;6.40;;;;;;;15.50;60.02;99221.95;1787481;78;21100;-42
2021/06/06 00:08:00;;;;;;;9.03;6.25;;;;;;;15.35;60.43;99223.75;1777711;78;20913;-42
2021/06/06 00:10:27;;;;;;;11.57;5.70;;;;;;;15.31;60.69;99226.50;1774317;78;21582;-43
2021/06/06 00:12:54;;;;;;;7.80;6.00;;;;;;;15.32;60.78;99225.33;1764313;79;21548;-43
2021/06/06 00:15:21;;;;;;;8.80;6.22;;;;;;;15.34;60.79;99227.09;1771656;79;21008;-43
2021/06/06 00:17:47;;;;;;;9.75;5.67;;;;;;;15.36;60.74;99221.22;1779579;78;21090;-42
2021/06/06 00:20:15;;;;;;;10.18;5.62;;;;;;;15.33;60.64;99222.80;1787512;78;20957;-42
2021/06/06 00:22:44;;;;;;;7.12;5.10;;;;;;;15.35;60.79;99219.66;1780829;78;21088;-42
2021/06/06 00:25:14;;;;;;;8.05;5.83;;;;;;;15.38;60.71;99216.15;1784065;78;21033;-42
2021/06/06 00:27:41;;;;;;;11.00;5.67;;;;;;;15.40;60.70;99211.84;1777275;78;21765;-43
2021/06/06 00:30:09;;;;;;;8.55;5.80;;;;;;;15.43;60.55;99215.75;1774829;78;21516;-43
2021/06/06 00:32:38;;;;;;;10.75;6.00;;;;;;;15.43;60.47;99211.66;1782541;78;20910;-44
2021/06/06 00:35:07;;;;;;;9.18;5.72;;;;;;;15.45;60.33;99213.38;1795774;78;20985;-43
2021/06/06 00:37:34;;;;;;;9.30;5.95;;;;;;;15.45;60.32;99212.02;1749998;80;20929;-42
2021/06/06 00:40:04;;;;;;;7.03;5.33;;;;;;;15.45;60.26;99210.66;1782186;78;21013;-43
2021/06/06 00:42:35;;;;;;;10.43;6.20;;;;;;;15.44;60.30;99206.39;1799078;78;21966;-43
2021/06/06 00:45:07;;;;;;;10.37;7.17;;;;;;;15.43;60.25;99199.36;1784385;79;20993;-43
2021/06/06 00:47:34;;;;;;;10.20;6.62;;;;;;;15.42;59.95;99196.42;1789587;78;21049;-43
2021/06/06 00:50:07;;;;;;;12.43;6.80;;;;;;;15.40;60.20;99192.72;1796628;78;21068;-42
2021/06/06 00:52:32;;;;;;;10.80;6.22;;;;;;;15.38;60.33;99195.08;1777426;80;21479;-42
2021/06/06 00:54:59;;;;;;;10.63;6.30;;;;;;;15.35;60.64;99197.80;1777971;79;21085;-42
2021/06/06 00:57:30;;;;;;;12.93;6.33;;;;;;;15.33;61.06;99200.16;1794106;79;21012;-43
2021/06/06 01:00:22;;;;;;;9.68;6.17;;;;;;;15.33;61.04;99205.63;1780544;78;20920;-42
2021/06/06 01:02:50;;;;;;;9.83;5.85;;;;;;;15.35;60.98;99204.05;1777088;79;21579;-42
2021/06/06 01:05:43;;;;;;;8.75;5.60;;;;;;;15.37;60.92;99205.81;1799637;78;21072;-42
2021/06/06 01:08:13;;;;;;;9.18;6.10;;;;;;;15.37;60.83;99207.17;1775448;78;21090;-42
2021/06/06 01:10:42;;;;;;;8.48;5.95;;;;;;;15.36;60.86;99205.61;1795586;79;20941;-43
2021/06/06 01:13:21;;;;;;;8.25;5.90;;;;;;;15.34;60.77;99191.59;1754940;79;21016;-43
2021/06/06 01:15:59;;;;;;;10.60;6.62;;;;;;;15.37;60.68;99192.73;1775443;79;21526;-43
2021/06/06 01:18:34;;;;;;;11.30;6.72;;;;;;;15.34;60.69;99186.13;1773750;78;21509;-43
2021/06/06 01:22:03;;;;;;;8.73;6.53;;;;;;;15.31;60.93;99184.75;1792970;78;20890;-42
2021/06/06 01:24:35;;;;;;;10.23;6.40;;;;;;;15.23;61.20;99187.52;1750536;79;21088;-42
2021/06/06 01:27:16;;;;;;;8.03;5.67;;;;;;;15.11;61.55;99185.77;1790544;78;20968;-42
2021/06/06 01:30:07;;;;;;;7.75;5.80;;;;;;;15.07;61.68;99183.05;1784214;78;20999;-42
2021/06/06 01:33:00;;;;;;;8.15;5.22;;;;;;;15.06;61.58;99182.86;1794546;78;21044;-42
2021/06/06 01:35:37;;;;;;;8.60;5.55;;;;;;;15.06;61.42;99184.22;1785065;78;21598;-42
2021/06/06 01:38:16;;;;;;;7.35;5.35;;;;;;;15.08;61.48;99185.98;1796934;78;21000;-43
2021/06/06 01:40:44;;;;;;;7.67;5.12;;;;;;;15.08;61.66;99183.26;1782473;78;21577;-42
2021/06/06 01:43:18;;;;;;;8.50;5.17;;;;;;;15.09;61.81;99184.04;1787343;78;21037;-42
2021/06/06 01:45:48;;;;;;;7.37;5.10;;;;;;;15.09;61.77;99186.19;1785663;77;20968;-42
2021/06/06 01:48:15;;;;;;;9.03;5.20;;;;;;;15.10;61.98;99186.97;1784324;78;21070;-42
2021/06/06 01:50:58;;;;;;;6.42;5.20;;;;;;;15.12;62.41;99192.22;1799467;78;21543;-42
2021/06/06 01:53:24;;;;;;;7.83;5.00;;;;;;;15.11;62.08;99189.28;1776100;79;20970;-43
2021/06/06 01:55:57;;;;;;;10.32;4.85;;;;;;;15.08;61.49;99187.35;1798337;78;21539;-43
2021/06/06 01:58:25;;;;;;;6.15;4.95;;;;;;;15.06;61.08;99180.13;1784699;78;21011;-42
2021/06/06 02:00:58;;;;;;;6.37;4.67;;;;;;;15.05;61.20;99181.33;1784794;78;21125;-43
2021/06/06 02:03:28;;;;;;;7.87;5.37;;;;;;;15.04;61.12;99178.39;1796538;78;21470;-42
2021/06/06 02:05:57;;;;;;;7.35;5.10;;;;;;;15.03;61.20;99180.92;1784516;78;20968;-42
2021/06/06 02:08:27;;;;;;;8.00;4.78;;;;;;;15.02;61.29;99178.00;1798331;79;21049;-43
2021/06/06 02:10:58;;;;;;;9.38;5.20;;;;;;;15.01;61.34;99178.37;1790219;78;21028;-43
2021/06/06 02:13:45;;;;;;;9.00;5.20;;;;;;;15.02;61.37;99173.90;1793824;78;21112;-43
2021/06/06 02:16:17;;;;;;;6.20;4.65;;;;;;;15.03;61.25;99167.86;1772219;78;21049;-44
2021/06/06 02:18:45;;;;;;;8.53;5.40;;;;;;;15.02;61.08;99169.02;1779308;80;22067;-43
2021/06/06 02:21:16;;;;;;;;;;;;;;;15.04;60.92;99167.47;1789386;78;21032;-42
2021/06/06 02:23:45;;;;;;;7.30;4.70;;;;;;;15.08;60.76;99168.83;1780940;78;20138;-42
2021/06/06 02:26:39;;;;;;;10.95;5.17;;;;;;;15.01;60.96;99165.52;1807640;77;21614;-42
2021/06/06 02:29:33;;;;;;;8.50;4.83;;;;;;;15.06;60.95;99156.92;1787072;80;21020;-43
2021/06/06 02:32:19;;;;;;;10.05;5.47;;;;;;;15.12;61.23;99163.55;1762066;79;21029;-42
2021/06/06 02:35:23;;;;;;;7.50;5.37;;;;;;;15.12;61.63;99166.27;1784863;79;20940;-42
2021/06/06 02:38:01;;;;;;;7.53;4.97;;;;;;;15.04;61.69;99167.47;1788072;78;21018;-43
2021/06/06 02:40:37;;;;;;;10.00;4.80;;;;;;;14.99;62.07;99165.14;1787047;78;21124;-42
2021/06/06 02:43:10;;;;;;;8.68;4.28;;;;;;;15.02;62.33;99173.90;1789649;79;20944;-43
2021/06/06 02:45:37;;;;;;;6.37;4.17;;;;;;;15.05;62.01;99164.16;1791585;78;20972;-42
2021/06/06 02:48:33;;;;;;;8.45;4.50;;;;;;;15.08;61.87;99165.51;1803972;78;21041;-42
2021/06/06 02:51:05;;;;;;;7.60;4.60;;;;;;;15.12;61.78;99163.55;1746911;80;21050;-42
2021/06/06 02:53:38;;;;;;;8.33;4.33;;;;;;;15.13;61.90;99166.47;1765860;79;20957;-43
2021/06/06 02:56:13;;;;;;;8.70;5.80;;;;;;;15.16;62.05;99171.13;1774835;78;21000;-43
2021/06/06 02:58:46;;;;;;;7.10;5.70;;;;;;;15.22;61.74;99180.48;1786209;79;20949;-42
2021/06/06 03:01:21;;;;;;;9.60;6.05;;;;;;;15.24;61.70;99171.91;1788353;79;20985;-43
2021/06/06 03:03:49;;;;;;;8.30;5.50;;;;;;;15.18;61.63;99176.99;1786461;78;20979;-43
2021/06/06 03:06:35;;;;;;;10.05;4.70;;;;;;;15.16;61.87;99168.41;1788625;77;21182;-43
2021/06/06 03:09:05;;;;;;;9.20;4.62;;;;;;;15.20;62.44;99171.14;1805839;78;20926;-43
2021/06/06 03:11:33;;;;;;;8.68;4.87;;;;;;;15.26;62.51;99170.13;1807724;78;20921;-44
2021/06/06 03:14:07;;;;;;;9.93;4.90;;;;;;;15.25;62.77;99174.81;1763455;78;21518;-43
2021/06/06 03:16:35;;;;;;;7.80;5.15;;;;;;;15.30;62.67;99173.04;1785862;78;21008;-43
2021/06/06 03:19:03;;;;;;;10.88;5.17;;;;;;;15.38;62.97;99176.55;1762283;77;21114;-43
2021/06/06 03:21:36;;;;;;;8.38;6.08;;;;;;;15.42;63.13;99182.19;1791543;77;21057;-43
2021/06/06 03:24:12;;;;;;;15.10;6.25;;;;;;;15.50;63.11;99189.75;1756859;78;20969;-43
2021/06/06 03:26:41;;;;;;;22.48;13.98;;;;;;;15.58;62.52;99184.50;1791349;78;21111;-43
2021/06/06 03:29:10;;;;;;;22.30;13.05;;;;;;;15.65;62.09;99184.45;1797090;78;21444;-43
2021/06/06 03:31:54;;;;;;;15.90;10.28;;;;;;;15.70;62.03;99184.05;1789099;77;21558;-43
2021/06/06 03:34:20;;;;;;;13.45;9.10;;;;;;;15.73;62.34;99191.47;1792423;78;20973;-43
2021/06/06 03:36:49;;;;;;;12.40;9.38;;;;;;;15.81;61.98;99192.98;1787199;77;21094;-43
2021/06/06 03:39:27;;;;;;;17.70;9.68;;;;;;;15.91;61.69;99188.63;1767941;78;21575;-43
2021/06/06 03:41:59;;;;;;;11.05;7.72;;;;;;;15.97;61.93;99189.78;1778651;78;21053;-43
2021/06/06 03:44:27;;;;;;;10.58;6.60;;;;;;;16.03;62.23;99201.83;1776650;78;21123;-43
2021/06/06 03:46:55;;;;;;;8.05;5.60;;;;;;;16.05;61.96;99197.53;1787000;78;20978;-43
2021/06/06 03:49:22;;;;;;;10.40;5.80;;;;;;;16.07;61.48;99206.10;1787434;78;21527;-43
2021/06/06 03:51:49;;;;;;;8.75;4.67;;;;;;;16.07;61.72;99208.84;1714621;81;21531;-43
2021/06/06 03:54:17;;;;;;;9.00;4.75;;;;;;;16.00;59.94;99208.11;1710037;81;21053;-43
2021/06/06 03:56:46;;;;;;;8.58;4.80;;;;;;;15.92;59.46;99209.34;1724431;80;21099;-43
2021/06/06 03:59:13;;;;;;;8.23;4.67;;;;;;;15.90;59.29;99209.72;1727104;80;21004;-43
2021/06/06 04:01:41;;;;;;;9.30;4.83;;;;;;;15.90;59.15;99208.94;1727448;80;21113;-43
2021/06/06 04:04:08;;;;;;;7.30;5.03;;;;;;;15.88;59.23;99212.06;1695473;82;21041;-43
2021/06/06 04:06:36;;;;;;;12.33;5.28;;;;;;;15.87;59.09;99217.95;1727792;82;21562;-43
2021/06/06 04:09:05;;;;;;;9.05;5.10;;;;;;;15.84;59.44;99214.05;1743313;81;21943;-43
2021/06/06 04:11:32;;;;;;;10.43;5.37;;;;;;;15.82;59.28;99208.21;1694487;82;21052;-43
2021/06/06 04:14:04;;;;;;;8.18;5.20;;;;;;;15.83;59.41;99206.27;1712491;83;21603;-43
2021/06/06 04:16:33;;;;;;;8.20;5.08;;;;;;;15.85;59.57;99207.41;1713670;83;21041;-43
2021/06/06 04:19:01;;;;;;;8.30;5.70;;;;;;;15.91;59.65;99196.25;1713833;83;21059;-43
2021/06/06 04:21:31;;;;;;;7.33;5.28;;;;;;;15.98;59.59;99196.78;1713481;82;21253;-43
2021/06/06 04:24:00;;;;;;;9.98;5.20;;;;;;;16.05;59.63;99199.49;1713233;83;21087;-43
2021/06/06 04:26:29;;;;;;;9.95;5.50;;;;;;;16.06;59.76;99195.00;1718382;82;20953;-43
2021/06/06 04:28:58;;;;;;;9.45;5.65;;;;;;;16.20;59.72;99207.80;1727098;81;21053;-44
2021/06/06 04:31:27;;;;;;;12.25;5.85;;;;;;;16.25;59.66;99206.02;1741143;81;21089;-43
2021/06/06 04:33:54;;;;;;;7.47;5.50;;;;;;;16.32;59.88;99205.95;1731809;82;21185;-43
2021/06/06 04:36:21;;;;;;;10.60;5.45;;;;;;;16.38;60.57;99202.98;1715204;82;21128;-43
2021/06/06 04:38:48;;;;;;;11.53;5.50;;;;;;;16.46;60.63;99203.70;1736881;82;21104;-43
2021/06/06 04:41:15;;;;;;;9.03;5.45;;;;;;;16.51;60.14;99203.27;1739573;82;21558;-43
2021/06/06 04:43:43;;;;;;;8.60;4.97;;;;;;;16.59;60.60;99205.41;1762566;80;21107;-43
2021/06/06 04:46:11;;;;;;;7.30;5.00;;;;;;;16.65;60.53;99209.28;1745212;82;21130;-43
2021/06/06 04:51:57;;;;;;;11.10;5.78;;;;;;;16.88;60.14;99200.66;1825696;76;22309;-43
2021/06/06 04:54:26;;;;;;;9.68;5.60;;;;;;;16.92;59.38;99198.66;1791694;78;20959;-43
2021/06/06 04:56:54;;;;;;;8.25;5.42;;;;;;;16.97;59.76;99198.03;1823984;77;21875;-43
2021/06/06 04:59:23;;;;;;;9.63;5.30;;;;;;;16.99;59.54;99198.42;1842430;76;20991;-43
2021/06/06 05:01:51;;;;;;;10.78;6.03;;;;;;;16.99;59.60;99194.31;1853155;76;21010;-43
2021/06/06 05:04:20;;;;;;;7.22;5.62;;;;;;;17.01;60.08;99194.66;1847771;76;20963;-43
2021/06/06 05:06:47;;;;;;;13.38;5.80;;;;;;;17.03;60.91;99192.31;1836541;76;20954;-45
2021/06/06 05:09:16;;;;;;;12.30;5.35;;;;;;;17.04;60.34;99185.66;1845681;76;21213;-43
2021/06/06 05:11:44;;;;;;;7.20;5.28;;;;;;;17.04;59.93;99191.13;1831446;76;21034;-43
2021/06/06 05:14:13;;;;;;;7.62;5.15;;;;;;;17.02;60.08;99192.12;1818039;77;20948;-43
2021/06/06 05:16:42;;;;;;;11.55;5.12;;;;;;;17.04;60.38;99192.50;1832598;75;21133;-44
2021/06/06 05:19:10;;;;;;;7.25;5.25;;;;;;;17.09;60.64;99191.44;1813121;77;21543;-44
2021/06/06 05:21:38;;;;;;;8.30;5.03;;;;;;;17.15;60.89;99193.15;1828433;77;21949;-43
2021/06/06 05:24:07;;;;;;;7.95;5.47;;;;;;;17.21;61.00;99198.38;1819384;77;20963;-43
2021/06/06 05:26:36;;;;;;;8.03;5.55;;;;;;;17.24;60.33;99201.66;1822764;76;21015;-43
2021/06/06 05:29:04;;;;;;;11.30;5.60;;;;;;;17.27;59.84;99203.61;1827337;77;20979;-43
2021/06/06 05:31:32;;;;;;;9.05;5.58;;;;;;;17.36;59.30;99206.64;1809370;77;21093;-43
2021/06/06 05:33:59;;;;;;;7.10;5.08;;;;;;;17.47;59.05;99205.16;1828621;77;21073;-43
2021/06/06 05:36:26;;;;;;;11.28;5.53;;;;;;;17.57;58.88;99202.88;1832638;76;21013;-43
2021/06/06 05:38:53;;;;;;;11.65;5.50;;;;;;;17.41;58.93;99167.05;1830604;77;21045;-43
2021/06/06 05:41:20;;;;;;;7.58;4.97;;;;;;;17.78;58.74;99210.86;1801777;78;21071;-43
2021/06/06 05:43:48;;;;;;;9.33;4.65;;;;;;;17.88;58.28;99209.17;1807468;76;20999;-43
2021/06/06 05:46:17;;;;;;;8.08;4.72;;;;;;;18.01;58.13;99213.68;1833248;77;21127;-43
2021/06/06 05:48:45;;;;;;;5.03;3.25;;;;;;;18.14;58.05;99211.95;1799196;77;20947;-43
2021/06/06 05:51:13;;;;;;;3.83;3.00;;;;;;;18.29;56.15;99208.41;1829425;76;21005;-43
2021/06/06 05:53:45;;;;;;;8.83;3.05;;;;;;;18.42;54.33;99208.01;1817690;78;21504;-43
2021/06/06 05:56:12;;;;;;;6.80;3.20;;;;;;;18.54;54.60;99210.19;1818965;78;21145;-43
2021/06/06 05:58:40;;;;;;;4.90;2.70;;;;;;;18.66;54.24;99209.61;1823313;78;21166;-43
2021/06/06 06:01:07;;;;;;;5.65;2.60;;;;;;;18.81;53.34;99205.27;1821344;78;21085;-43
2021/06/06 06:03:34;;;;;;;4.83;2.33;;;;;;;18.89;53.54;99195.70;1840213;77;21601;-43
2021/06/06 06:06:01;;;;;;;3.90;2.58;;;;;;;19.01;53.72;99197.25;1844475;76;21024;-43
2021/06/06 06:08:34;;;;;;;4.92;2.70;;;;;;;19.16;53.53;99197.00;1843551;76;20973;-43
2021/06/06 06:11:04;;;;;;;7.17;2.52;;;;;;;19.24;52.20;99199.19;1842464;76;21056;-43
2021/06/06 06:13:33;;;;;;;10.35;2.70;;;;;;;19.30;51.76;99193.38;1830832;76;21059;-43
2021/06/06 06:16:00;;;;;;;6.67;2.45;;;;;;;19.42;51.32;99198.84;1835135;77;21012;-42
2021/06/06 06:18:28;;;;;;;4.20;2.50;;;;;;;19.56;51.09;99195.08;1830738;77;21020;-43
2021/06/06 06:20:57;;;;;;;4.60;2.10;;;;;;;19.71;50.52;99197.69;1809963;78;21039;-43
2021/06/06 06:23:25;;;;;;;7.20;1.70;;;;;;;19.86;49.80;99200.33;1821289;77;21111;-43
2021/06/06 06:25:52;;;;;;;5.08;1.98;;;;;;;20.03;48.77;99201.94;1845581;77;20981;-43
2021/06/06 06:28:19;;;;;;;6.15;2.00;;;;;;;20.18;48.08;99205.92;1845966;76;20996;-44
2021/06/06 06:31:04;;;;;;;6.08;1.90;;;;;;;20.32;47.67;99202.10;1828515;76;20916;-44
2021/06/06 06:33:48;;;;;;;5.80;2.02;;;;;;;20.45;46.97;99208.47;1817737;78;21031;-44
2021/06/06 06:36:17;;;;;;;4.47;2.20;;;;;;;20.55;46.88;99199.78;1817197;78;21007;-43
2021/06/06 06:38:46;;;;;;;4.30;1.90;;;;;;;20.63;45.25;99197.02;1816274;76;21027;-43
2021/06/06 06:41:13;;;;;;;3.47;2.08;;;;;;;20.68;44.81;99197.28;1793463;78;21032;-44
2021/06/06 06:43:40;;;;;;;3.50;2.08;;;;;;;20.72;45.66;99197.22;1813166;78;21021;-44
2021/06/06 06:46:06;;;;;;;4.58;1.85;;;;;;;20.80;45.15;99195.82;1830076;76;21505;-44
2021/06/06 06:48:35;;;;;;;4.67;1.90;;;;;;;20.91;45.16;99199.09;1824877;78;20987;-43
2021/06/06 06:51:01;;;;;;;5.40;2.15;;;;;;;21.06;44.72;99196.11;1830152;75;21138;-43
2021/06/06 06:53:28;;;;;;;4.08;1.98;;;;;;;21.17;44.93;99189.75;1823848;78;21624;-43
2021/06/06 06:55:55;;;;;;;7.28;2.00;;;;;;;21.25;45.15;99184.83;1827910;78;21078;-43
2021/06/06 06:58:21;;;;;;;7.12;1.77;;;;;;;21.34;43.55;99194.63;1826372;77;21037;-43
2021/06/06 07:00:51;;;;;;;3.83;1.80;;;;;;;21.42;43.65;99190.45;1847034;76;21577;-43
2021/06/06 07:03:25;;;;;;;6.80;1.92;;;;;;;21.45;41.24;99188.80;1823800;78;20955;-43
2021/06/06 07:05:53;;;;;;;7.90;2.10;;;;;;;21.44;41.58;99188.05;1830696;76;21018;-43
2021/06/06 07:08:24;;;;;;;3.98;1.80;;;;;;;21.47;42.06;99183.02;1819648;77;21012;-43
2021/06/06 07:10:53;;;;;;;6.65;1.47;;;;;;;21.51;42.58;99189.20;1775981;79;21711;-43
2021/06/06 07:13:22;;;;;;;3.33;1.67;;;;;;;21.56;42.18;99179.02;1765266;80;20992;-44
2021/06/06 07:15:49;;;;;;;4.22;1.55;;;;;;;21.65;41.40;99186.05;1769705;80;20932;-44
2021/06/06 07:18:20;;;;;;;4.85;1.70;;;;;;;21.71;41.03;99182.14;1770283;79;21629;-43
2021/06/06 07:20:50;;;;;;;5.40;1.50;;;;;;;21.77;41.29;99172.11;1765012;80;21039;-44
2021/06/06 07:23:21;;;;;;;4.17;1.80;;;;;;;21.87;40.27;99178.53;1755562;80;21589;-44
2021/06/06 07:25:49;;;;;;;5.25;1.60;;;;;;;21.94;40.04;99183.25;1762377;80;21008;-44
2021/06/06 07:28:20;;;;;;;4.72;1.60;;;;;;;22.06;40.03;99178.96;1751433;79;20901;-44
2021/06/06 07:30:51;;;;;;;5.20;1.60;;;;;;;22.07;41.00;99185.41;1746147;81;21060;-43
2021/06/06 07:33:20;;;;;;;4.55;1.80;;;;;;;22.08;41.72;99182.81;1746579;81;20992;-44
2021/06/06 07:35:47;;;;;;;4.87;1.80;;;;;;;22.03;41.72;99186.13;1755709;81;21151;-43
2021/06/06 07:38:14;;;;;;;6.05;2.08;;;;;;;21.94;42.14;99183.85;1759835;79;21103;-43
2021/06/06 07:40:43;;;;;;;5.22;1.87;;;;;;;21.86;41.80;99190.77;1760858;81;20975;-44
2021/06/06 07:43:09;;;;;;;3.77;1.80;;;;;;;21.82;41.37;99186.75;1768287;79;20960;-44
2021/06/06 07:45:37;;;;;;;6.62;2.20;;;;;;;21.81;41.62;99192.09;1756964;80;21084;-44
2021/06/06 07:48:05;;;;;;;8.55;2.40;;;;;;;21.84;41.67;99186.29;1756951;80;21049;-44
2021/06/06 07:50:34;;;;;;;3.10;1.45;;;;;;;21.87;41.32;99191.73;1750315;79;21105;-44
2021/06/06 07:53:01;;;;;;;6.20;1.87;;;;;;;21.94;41.89;99187.39;1758870;79;21048;-45
2021/06/06 07:55:28;;;;;;;3.33;1.92;;;;;;;22.03;41.40;99185.34;1763935;80;21036;-45
2021/06/06 07:57:56;;;;;;;4.45;1.80;;;;;;;22.06;41.34;99183.10;1755046;80;20953;-45
2021/06/06 08:00:27;;;;;;;3.65;1.77;;;;;;;22.09;41.57;99189.11;1763587;80;21063;-50
2021/06/06 08:02:53;;;;;;;4.03;1.98;;;;;;;22.10;41.65;99189.28;1794568;78;21115;-45
2021/06/06 08:05:21;;;;;;;5.35;1.90;;;;;;;22.15;42.20;99184.59;1781422;78;20958;-45
2021/06/06 08:07:48;;;;;;;5.80;1.92;;;;;;;22.23;43.38;99187.90;1748808;80;21003;-46
2021/06/06 08:10:16;;;;;;;4.80;1.87;;;;;;;22.32;43.55;99187.40;1764085;79;21027;-46
2021/06/06 08:12:42;;;;;;;5.87;2.05;;;;;;;22.44;42.61;99182.48;1755916;79;21002;-46
2021/06/06 08:15:12;;;;;;;3.02;1.85;;;;;;;22.48;40.53;99183.74;1765266;80;21004;-45
2021/06/06 08:17:39;;;;;;;4.10;2.05;;;;;;;22.44;40.84;99189.39;1750220;81;21089;-45
2021/06/06 08:20:15;;;;;;;4.60;2.15;;;;;;;22.33;42.08;99196.46;1750103;80;20972;-45
2021/06/06 08:22:43;;;;;;;5.00;2.30;;;;;;;22.21;43.34;99195.87;1778320;79;20992;-45
2021/06/06 08:25:13;;;;;;;5.35;2.37;;;;;;;22.06;43.23;99197.69;1778572;80;21058;-45
2021/06/06 08:27:42;;;;;;;3.87;2.10;;;;;;;21.92;43.48;99200.06;1791961;78;21114;-45
2021/06/06 08:30:17;;;;;;;6.00;2.50;;;;;;;21.77;43.72;99194.80;1776534;79;21576;-45
2021/06/06 08:32:43;;;;;;;7.33;2.35;;;;;;;21.60;43.52;99192.70;1778585;79;20977;-45
2021/06/06 08:35:11;;;;;;;4.25;1.98;;;;;;;21.44;44.56;99191.41;1787001;78;21795;-45
2021/06/06 08:37:39;;;;;;;7.20;2.10;;;;;;;21.10;44.37;99170.63;1794696;78;21017;-47
2021/06/06 08:40:08;;;;;;;5.37;2.58;;;;;;;21.25;43.38;99200.75;1796272;78;21075;-45
2021/06/06 08:42:38;;;;;;;5.78;2.22;;;;;;;21.18;42.32;99200.95;1772144;79;21041;-45
2021/06/06 08:45:22;;;;;;;4.05;1.98;;;;;;;21.11;44.39;99205.23;1763511;79;20889;-45
2021/06/06 08:47:50;;;;;;;5.05;2.35;;;;;;;21.06;44.46;99208.52;1780846;78;21859;-46
2021/06/06 08:50:22;;;;;;;5.78;2.08;;;;;;;21.03;42.99;99205.86;1755725;81;21110;-45
2021/06/06 08:53:07;;;;;;;3.47;1.80;;;;;;;20.98;43.01;99205.78;1811491;78;21124;-46
2021/06/06 08:56:19;;;;;;;5.22;2.00;;;;;;;20.91;43.12;99207.36;1759215;81;20940;-45
2021/06/06 08:59:08;;;;;;;4.30;1.80;;;;;;;20.86;44.00;99207.09;1780823;79;20989;-45
2021/06/06 09:02:05;;;;;;;3.42;1.45;;;;;;;20.80;43.85;99206.84;1774998;79;20941;-45
2021/06/06 09:04:34;;;;;;;4.75;1.80;;;;;;;20.77;42.75;99199.42;1784558;78;21067;-45
2021/06/06 09:07:18;;;;;;;2.77;1.90;;;;;;;20.68;42.48;99200.63;1764242;79;21859;-46
2021/06/06 09:09:49;;;;;;;6.35;2.20;;;;;;;20.71;43.60;99203.32;1782650;78;21616;-45
2021/06/06 09:12:19;;;;;;;2.93;2.03;;;;;;;20.73;43.70;99207.00;1783043;79;21596;-45
2021/06/06 09:14:47;;;;;;;7.00;2.02;;;;;;;20.77;44.34;99200.20;1780698;78;21271;-46
2021/06/06 09:17:17;;;;;;;4.40;2.33;;;;;;;20.84;44.38;99202.02;1802173;78;21033;-46
2021/06/06 09:19:56;;;;;;;7.50;2.37;;;;;;;20.90;43.63;99197.53;1804666;78;21139;-46
2021/06/06 09:22:37;;;;;;;8.40;2.17;;;;;;;20.99;43.53;99193.55;1770882;79;21631;-45
2021/06/06 09:25:29;;;;;;;7.75;2.67;;;;;;;21.09;43.53;99202.75;1776450;79;21055;-45
2021/06/06 09:28:21;;;;;;;6.05;2.50;;;;;;;21.12;43.11;99194.38;1755200;80;21032;-45
2021/06/06 09:31:08;;;;;;;4.20;2.22;;;;;;;21.14;44.89;99188.47;1749816;80;21089;-45
2021/06/06 09:33:55;;;;;;;9.03;2.65;;;;;;;21.18;45.42;99190.52;1752457;79;21148;-45
2021/06/06 09:36:41;;;;;;;5.60;2.65;;;;;;;21.20;46.05;99183.35;1768809;79;21551;-45
2021/06/06 09:39:20;;;;;;;9.05;2.58;;;;;;;21.19;45.25;99179.07;1762161;79;21118;-45
2021/06/06 09:41:53;;;;;;;5.72;2.75;;;;;;;21.16;45.66;99177.16;1766554;80;21525;-45
2021/06/06 09:44:32;;;;;;;6.75;2.42;;;;;;;21.16;45.96;99174.41;1786153;79;21044;-45
2021/06/06 09:47:11;;;;;;;4.85;2.30;;;;;;;21.19;43.89;99176.91;1748756;80;21126;-46
2021/06/06 09:49:44;;;;;;;4.50;2.47;;;;;;;21.18;44.02;99181.66;1772218;80;21936;-45
2021/06/06 09:52:23;;;;;;;5.08;2.52;;;;;;;21.20;44.72;99177.09;1763498;79;21002;-43
2021/06/06 09:54:58;;;;;;;4.78;2.08;;;;;;;21.25;45.19;99180.06;1819532;78;20933;-43
2021/06/06 09:57:37;;;;;;;5.80;2.30;;;;;;;21.30;44.95;99180.77;1804084;78;22062;-43
2021/06/06 10:00:22;;;;;;;7.85;2.17;;;;;;;21.35;43.45;99182.36;1813902;78;21132;-43
2021/06/06 10:03:00;;;;;;;8.95;2.47;;;;;;;21.36;42.91;99180.38;1819663;78;20995;-44
2021/06/06 10:05:31;;;;;;;2.83;1.70;;;;;;;21.35;42.32;99186.50;1822966;78;21529;-43
2021/06/06 10:08:08;;;;;;;2.45;2.00;;;;;;;21.35;41.37;99177.48;1775744;79;20939;-44
2021/06/06 10:10:41;;;;;;;7.12;2.02;;;;;;;21.34;41.95;99178.68;1776313;79;21047;-43
2021/06/06 10:13:12;;;;;;;4.72;1.98;;;;;;;21.36;42.67;99181.77;1776295;79;21800;-44
2021/06/06 10:15:54;;;;;;;5.70;2.35;;;;;;;21.40;42.91;99174.94;1760132;80;21772;-43
2021/06/06 10:18:28;;;;;;;5.17;2.30;;;;;;;21.45;43.01;99175.78;1760061;80;21590;-44
2021/06/06 10:21:16;;;;;;;3.40;2.50;;;;;;;21.23;43.26;99138.39;1774574;79;21094;-43
2021/06/06 10:23:57;;;;;;;3.70;2.00;;;;;;;21.47;43.42;99173.37;1773520;79;20988;-44
2021/06/06 10:26:56;;;;;;;4.10;2.02;;;;;;;21.46;41.91;99158.62;1765874;80;21133;-44
2021/06/06 10:29:28;;;;;;;5.10;2.00;;;;;;;21.47;42.53;99158.80;1764748;79;21019;-44
2021/06/06 10:32:26;;;;;;;5.50;1.92;;;;;;;21.47;41.79;99152.68;1766329;79;21001;-43
2021/06/06 10:35:11;;;;;;;4.25;2.12;;;;;;;21.49;41.22;99153.63;1759335;80;21086;-43
2021/06/06 10:37:40;;;;;;;6.12;2.20;;;;;;;21.48;41.68;99151.48;1780999;79;21420;-43
2021/06/06 10:40:18;;;;;;;3.85;2.10;;;;;;;21.50;42.56;99146.28;1759972;79;21169;-43
2021/06/06 10:42:53;;;;;;;3.70;2.30;;;;;;;21.53;42.67;99141.89;1720700;79;21018;-43
2021/06/06 10:45:40;;;;;;;6.58;2.85;;;;;;;21.58;42.82;99141.34;1787827;79;21640;-43
2021/06/06 10:48:25;;;;;;;3.08;2.20;;;;;;;21.65;42.48;99138.36;1752745;79;21081;-44
2021/06/06 10:51:19;;;;;;;2.87;2.20;;;;;;;21.73;42.60;99142.48;1762807;80;21044;-43
2021/06/06 10:54:06;;;;;;;6.85;2.80;;;;;;;21.83;42.60;99141.39;1776290;80;22069;-43
2021/06/06 10:56:48;;;;;;;5.47;2.60;;;;;;;22.01;42.54;99141.64;1779165;79;20936;-44
2021/06/06 10:59:15;;;;;;;6.55;2.60;;;;;;;22.29;42.27;99139.19;1773031;79;21032;-44
2021/06/06 11:01:51;;;;;;;10.13;2.90;;;;;;;22.72;41.55;99134.43;1758897;80;21534;-44
2021/06/06 11:04:23;;;;;;;6.10;2.62;;;;;;;23.02;41.42;99119.95;1774043;79;21495;-43
2021/06/06 11:07:06;;;;;;;5.20;2.50;;;;;;;23.43;41.11;99111.92;1783209;79;21031;-44
2021/06/06 11:09:35;;;;;;;4.80;2.52;;;;;;;23.87;41.25;99113.28;1755042;81;21453;-48
2021/06/06 11:12:09;;;;;;;;;;;;;;;24.25;39.55;99111.73;1786235;79;21530;-44
2021/06/06 11:14:48;;;;;;;3.83;2.33;;;;;;;24.57;38.07;99103.49;1784631;79;20087;-44
2021/06/06 11:17:38;;;;;;;3.58;2.20;;;;;;;24.72;37.49;99102.27;1780545;79;20936;-44
2021/06/06 11:20:28;;;;;;;3.37;2.10;;;;;;;24.92;36.59;99095.69;1765637;81;21081;-44
2021/06/06 11:22:55;;;;;;;;;;;;;;;25.12;37.59;99100.77;1767072;81;20992;-44
2021/06/06 11:25:30;;;;;;;5.28;2.62;;;;;;;25.30;37.07;99092.41;1767353;81;20177;-43
2021/06/06 11:28:21;;;;;;;4.30;2.37;;;;;;;25.29;36.16;99090.08;1761288;79;21047;-44
2021/06/06 11:30:47;;;;;;;3.00;2.30;;;;;;;25.30;36.31;99091.63;1766276;79;21572;-44
2021/06/06 11:33:15;;;;;;;4.65;2.40;;;;;;;25.25;36.81;99095.03;1779808;80;21082;-44
2021/06/06 11:35:49;;;;;;;6.53;2.22;;;;;;;25.17;36.54;99091.81;1791401;79;21101;-44
2021/06/06 11:38:40;;;;;;;5.28;2.27;;;;;;;25.16;37.21;99091.66;1763956;79;21494;-44
2021/06/06 11:41:24;;;;;;;5.70;2.65;;;;;;;25.36;36.56;99100.27;1795314;78;21508;-44
2021/06/06 11:44:16;;;;;;;5.03;2.50;;;;;;;25.61;37.15;99092.83;1758456;78;21115;-44
2021/06/06 11:46:55;;;;;;;4.05;2.20;;;;;;;25.94;36.73;99095.01;1740196;81;21120;-44
2021/06/06 11:49:51;;;;;;;5.10;1.90;;;;;;;26.33;35.23;99085.56;1758884;81;20992;-43
2021/06/06 11:52:35;;;;;;;4.80;2.10;;;;;;;26.56;34.79;99089.58;1759591;81;21019;-44
2021/06/06 11:55:21;;;;;;;3.77;1.95;;;;;;;26.64;34.03;99096.30;1759654;79;21941;-44
2021/06/06 11:58:10;;;;;;;4.70;1.77;;;;;;;26.65;33.31;99094.30;1765149;79;21516;-43
2021/06/06 12:00:49;;;;;;;5.60;1.75;;;;;;;26.72;32.49;99088.38;1768386;79;21374;-43
2021/06/06 12:03:31;;;;;;;2.22;1.52;;;;;;;26.93;31.04;99081.73;1737113;81;21509;-44